createdAt,value
2023-03-12T00:01:22.862Z,99.90
2023-03-12T00:03:50.290Z,99.90
2023-03-12T00:06:17.992Z,99.90
2023-03-12T00:08:44.799Z,99.90
2023-03-12T00:11:13.040Z,99.90
2023-03-12T00:13:40.212Z,99.90
2023-03-12T00:16:15.876Z,99.90
2023-03-12T00:18:42.975Z,99.90
2023-03-12T00:21:10.031Z,99.90
2023-03-12T00:23:37.013Z,99.90
2023-03-12T00:26:08.214Z,99.90
2023-03-12T00:28:35.306Z,99.90
2023-03-12T00:31:02.431Z,99.90
2023-03-12T00:33:32.032Z,99.90
2023-03-12T00:36:00.043Z,99.90
2023-03-12T00:38:26.687Z,99.90
2023-03-12T00:40:53.263Z,99.90
2023-03-12T00:43:19.888Z,99.90
2023-03-12T00:45:46.445Z,99.90
2023-03-12T00:48:13.063Z,99.90
2023-03-12T00:50:39.673Z,99.90
2023-03-12T00:53:06.436Z,99.90
2023-03-12T00:55:33.121Z,99.90
2023-03-12T00:57:59.732Z,99.90
2023-03-12T01:00:26.547Z,99.90
2023-03-12T01:02:53.274Z,99.90
2023-03-12T01:05:19.925Z,99.90
2023-03-12T01:07:46.581Z,99.90
2023-03-12T01:10:14.984Z,99.90
2023-03-12T01:12:41.762Z,99.90
2023-03-12T01:15:09.090Z,99.90
2023-03-12T01:17:35.693Z,99.90
2023-03-12T01:20:02.374Z,99.90
2023-03-12T01:22:28.988Z,99.90
2023-03-12T01:24:55.614Z,99.90
2023-03-12T01:27:22.193Z,99.90
2023-03-12T01:29:48.892Z,99.90
2023-03-12T01:32:17.016Z,99.90
2023-03-12T01:34:44.317Z,99.90
2023-03-12T01:37:11.060Z,99.90
2023-03-12T01:39:37.843Z,99.90
2023-03-12T01:42:04.482Z,99.90
2023-03-12T01:44:31.327Z,99.90
2023-03-12T01:46:57.938Z,99.90
2023-03-12T01:49:30.144Z,99.90
2023-03-12T01:52:04.687Z,99.90
2023-03-12T01:54:39.364Z,99.90
2023-03-12T01:57:08.486Z,99.90
2023-03-12T01:59:42.270Z,99.90
2023-03-12T02:02:09.358Z,99.90
2023-03-12T02:04:36.425Z,99.90
2023-03-12T02:07:04.738Z,99.90
2023-03-12T02:09:33.463Z,99.90
2023-03-12T02:12:00.197Z,99.90
2023-03-12T02:14:27.008Z,99.90
2023-03-12T02:16:54.063Z,99.90
2023-03-12T02:19:25.876Z,99.90
2023-03-12T02:21:52.726Z,99.90
2023-03-12T02:24:25.936Z,99.90
2023-03-12T02:26:52.558Z,99.90
2023-03-12T02:29:19.226Z,99.90
2023-03-12T02:31:48.527Z,99.90
2023-03-12T02:34:15.132Z,99.90
2023-03-12T02:36:41.731Z,99.90
2023-03-12T02:39:10.979Z,99.90
2023-03-12T02:42:07.082Z,99.90
2023-03-12T02:44:34.228Z,99.90
2023-03-12T02:47:01.499Z,99.90
2023-03-12T02:49:29.862Z,99.90
2023-03-12T02:51:56.840Z,99.90
2023-03-12T02:54:23.862Z,99.90
2023-03-12T02:56:51.105Z,99.90
2023-03-12T02:59:20.655Z,99.90
2023-03-12T03:01:47.329Z,99.90
2023-03-12T03:04:13.940Z,99.90
2023-03-12T03:06:42.452Z,99.90
2023-03-12T03:09:09.076Z,99.90
2023-03-12T03:11:35.724Z,99.90
2023-03-12T03:14:04.289Z,99.90
2023-03-12T03:16:31.002Z,99.90
2023-03-12T03:18:57.620Z,99.90
2023-03-12T03:21:24.351Z,99.90
2023-03-12T03:23:51.807Z,99.90
2023-03-12T03:26:20.612Z,99.90
2023-03-12T03:28:47.234Z,99.90
2023-03-12T03:31:13.865Z,99.90
2023-03-12T03:33:40.561Z,99.90
2023-03-12T03:36:08.061Z,99.90
2023-03-12T03:38:34.945Z,99.90
2023-03-12T03:41:01.804Z,99.90
2023-03-12T03:43:28.549Z,99.90
2023-03-12T03:45:58.669Z,99.90
2023-03-12T03:48:25.453Z,99.90
2023-03-12T03:50:52.264Z,99.90
2023-03-12T03:53:21.718Z,99.90
2023-03-12T03:55:48.332Z,99.90
2023-03-12T03:58:15.053Z,99.90
2023-03-12T04:00:43.815Z,99.90
2023-03-12T04:03:10.591Z,99.90
2023-03-12T04:05:37.222Z,99.90
2023-03-12T04:08:03.950Z,99.90
2023-03-12T04:10:30.610Z,99.90
2023-03-12T04:12:57.283Z,99.90
2023-03-12T04:15:23.906Z,99.90
2023-03-12T04:17:50.649Z,99.90
2023-03-12T04:20:17.406Z,99.90
2023-03-12T04:22:43.999Z,99.90
2023-03-12T04:25:11.285Z,99.90
2023-03-12T04:27:37.867Z,99.90
2023-03-12T04:30:04.780Z,99.90
2023-03-12T04:32:31.366Z,99.90
2023-03-12T04:34:57.962Z,99.90
2023-03-12T04:37:24.560Z,99.90
2023-03-12T04:39:51.194Z,99.90
2023-03-12T04:42:17.768Z,99.90
2023-03-12T04:44:44.346Z,99.90
2023-03-12T04:47:10.926Z,99.90
2023-03-12T04:49:38.384Z,99.90
2023-03-12T04:52:05.102Z,99.90
2023-03-12T04:54:31.935Z,99.90
2023-03-12T04:56:58.510Z,99.90
2023-03-12T04:59:25.211Z,99.90
2023-03-12T05:01:51.852Z,99.90
2023-03-12T05:04:18.452Z,99.90
2023-03-12T05:06:45.045Z,99.90
2023-03-12T05:09:11.697Z,99.90
2023-03-12T05:11:39.814Z,99.90
2023-03-12T05:14:06.659Z,99.90
2023-03-12T05:16:33.371Z,99.90
2023-03-12T05:19:00.041Z,99.90
2023-03-12T05:21:26.717Z,99.90
2023-03-12T05:23:53.310Z,99.90
2023-03-12T05:26:27.896Z,99.90
2023-03-12T05:28:54.747Z,99.90
2023-03-12T05:31:21.585Z,99.90
2023-03-12T05:33:48.642Z,99.90
2023-03-12T05:36:16.816Z,99.90
2023-03-12T05:38:43.734Z,99.90
2023-03-12T05:41:17.432Z,99.90
2023-03-12T05:43:44.102Z,99.90
2023-03-12T05:46:10.818Z,99.90
2023-03-12T05:48:37.447Z,99.90
2023-03-12T05:51:04.122Z,99.90
2023-03-12T05:53:30.856Z,99.90
2023-03-12T05:56:02.759Z,99.90
2023-03-12T05:58:29.382Z,99.90
2023-03-12T06:00:56.010Z,99.90
2023-03-12T06:03:22.624Z,99.90
2023-03-12T06:05:49.285Z,99.90
2023-03-12T06:08:15.950Z,99.90
2023-03-12T06:10:42.552Z,99.90
2023-03-12T06:13:09.224Z,99.90
2023-03-12T06:15:35.874Z,99.90
2023-03-12T06:18:02.479Z,99.90
2023-03-12T06:20:29.156Z,99.90
2023-03-12T06:22:55.743Z,99.90
2023-03-12T06:25:22.340Z,99.90
2023-03-12T06:27:48.954Z,99.90
2023-03-12T06:30:15.899Z,99.90
2023-03-12T06:32:42.567Z,99.90
2023-03-12T06:35:09.624Z,99.90
2023-03-12T06:37:36.265Z,99.90
2023-03-12T06:40:04.854Z,99.90
2023-03-12T06:42:32.264Z,99.90
2023-03-12T06:44:58.876Z,99.90
2023-03-12T06:47:25.483Z,99.90
2023-03-12T06:49:52.218Z,99.90
2023-03-12T06:52:18.822Z,99.90
2023-03-12T06:54:45.517Z,99.90
2023-03-12T06:57:12.203Z,99.90
2023-03-12T06:59:38.912Z,99.90
2023-03-12T07:02:05.739Z,99.90
2023-03-12T07:04:32.680Z,99.90
2023-03-12T07:06:59.306Z,99.90
2023-03-12T07:09:25.940Z,99.90
2023-03-12T07:11:52.555Z,99.90
2023-03-12T07:14:20.300Z,99.90
2023-03-12T07:16:47.402Z,99.90
2023-03-12T07:19:14.186Z,99.90
2023-03-12T07:21:41.059Z,99.90
2023-03-12T07:24:08.844Z,99.90
2023-03-12T07:26:35.572Z,99.90
2023-03-12T07:29:02.941Z,99.90
2023-03-12T07:31:29.694Z,99.90
2023-03-12T07:33:56.506Z,99.90
2023-03-12T07:36:23.777Z,99.90
2023-03-12T07:38:50.619Z,99.90
2023-03-12T07:41:17.321Z,99.90
2023-03-12T07:43:44.485Z,99.90
2023-03-12T07:46:11.200Z,99.90
2023-03-12T07:48:38.676Z,99.90
2023-03-12T07:51:05.583Z,99.90
2023-03-12T07:53:32.265Z,99.90
2023-03-12T07:55:59.039Z,99.90
2023-03-12T07:58:25.926Z,99.90
2023-03-12T08:00:54.807Z,99.90
2023-03-12T08:03:21.496Z,99.90
2023-03-12T08:06:02.458Z,99.90
2023-03-12T08:08:29.877Z,99.90
2023-03-12T08:10:57.178Z,99.90
2023-03-12T08:13:24.365Z,99.90
2023-03-12T08:15:52.745Z,99.90
2023-03-12T08:18:20.062Z,99.90
2023-03-12T08:20:49.403Z,99.90
2023-03-12T08:23:16.055Z,99.90
2023-03-12T08:25:44.755Z,99.90
2023-03-12T08:28:11.420Z,99.30
2023-03-12T08:30:38.002Z,99.60
2023-03-12T08:33:04.914Z,99.20
2023-03-12T08:35:31.581Z,98.90
2023-03-12T08:38:00.872Z,99.20
2023-03-12T08:40:27.948Z,98.70
2023-03-12T08:42:54.590Z,98.20
2023-03-12T08:45:21.247Z,98.20
2023-03-12T08:47:47.961Z,98.50
2023-03-12T08:50:16.680Z,97.30
2023-03-12T08:52:43.629Z,97.60
2023-03-12T08:55:11.228Z,97.20
2023-03-12T08:57:38.148Z,97.00
2023-03-12T09:00:06.652Z,97.20
2023-03-12T09:02:33.249Z,97.70
2023-03-12T09:04:59.791Z,97.70
2023-03-12T09:07:26.415Z,97.90
2023-03-12T09:09:54.528Z,97.40
2023-03-12T09:12:21.241Z,97.90
2023-03-12T09:15:02.905Z,98.20
2023-03-12T09:17:30.517Z,98.60
2023-03-12T09:19:57.119Z,98.40
2023-03-12T09:22:23.793Z,98.00
2023-03-12T09:24:50.432Z,97.60
2023-03-12T09:27:17.066Z,97.90
2023-03-12T09:29:58.722Z,98.00
2023-03-12T09:32:27.245Z,97.60
2023-03-12T09:34:54.411Z,95.80
2023-03-12T09:37:23.762Z,95.00
2023-03-12T09:39:51.193Z,94.20
2023-03-12T09:42:40.506Z,93.30
2023-03-12T09:45:07.930Z,93.80
2023-03-12T09:47:41.654Z,93.40
2023-03-12T09:50:17.469Z,94.00
2023-03-12T09:52:56.116Z,93.50
2023-03-12T09:55:24.064Z,94.50
2023-03-12T09:57:51.398Z,94.20
2023-03-12T10:00:19.468Z,93.50
2023-03-12T10:02:52.910Z,93.40
2023-03-12T10:05:19.645Z,91.50
2023-03-12T10:07:53.300Z,91.20
2023-03-12T10:10:37.185Z,91.70
2023-03-12T10:13:06.901Z,91.10
2023-03-12T10:15:39.758Z,89.20
2023-03-12T10:18:24.682Z,88.50
2023-03-12T10:21:09.948Z,87.80
2023-03-12T10:23:36.605Z,87.30
2023-03-12T10:26:09.993Z,87.30
2023-03-12T10:28:53.911Z,86.40
2023-03-12T10:31:24.112Z,87.20
2023-03-12T10:34:00.501Z,87.30
2023-03-12T10:36:27.083Z,84.50
2023-03-12T10:38:53.929Z,82.90
2023-03-12T10:41:22.395Z,80.20
2023-03-12T10:43:48.988Z,80.00
2023-03-12T10:46:35.086Z,76.80
2023-03-12T10:49:25.022Z,77.40
2023-03-12T10:52:17.858Z,76.70
2023-03-12T10:54:46.179Z,75.70
2023-03-12T10:57:13.542Z,64.00
2023-03-12T10:59:44.105Z,62.20
2023-03-12T11:02:30.690Z,64.60
2023-03-12T11:04:57.818Z,62.50
2023-03-12T11:07:27.758Z,65.30
2023-03-12T11:10:06.506Z,64.10
2023-03-12T11:12:35.999Z,63.90
2023-03-12T11:15:37.965Z,65.60
2023-03-12T11:18:19.559Z,66.10
2023-03-12T11:20:46.407Z,64.80
2023-03-12T11:23:15.638Z,61.60
2023-03-12T11:25:42.252Z,60.60
2023-03-12T11:28:13.091Z,63.80
2023-03-12T11:30:40.283Z,63.20
2023-03-12T11:33:09.153Z,63.00
2023-03-12T11:35:35.841Z,62.80
2023-03-12T11:38:10.502Z,61.00
2023-03-12T11:40:52.487Z,60.30
2023-03-12T11:43:35.964Z,59.60
2023-03-12T11:46:16.711Z,59.90
2023-03-12T11:48:58.713Z,60.50
2023-03-12T11:51:45.637Z,61.50
2023-03-12T11:54:24.831Z,63.30
2023-03-12T11:56:56.715Z,67.20
2023-03-12T11:59:47.287Z,66.60
2023-03-12T12:02:17.034Z,66.40
2023-03-12T12:04:53.670Z,64.60
2023-03-12T12:07:20.223Z,66.60
2023-03-12T12:09:52.006Z,67.80
2023-03-12T12:12:31.115Z,65.60
2023-03-12T12:15:10.713Z,66.20
2023-03-12T12:17:46.512Z,65.70
2023-03-12T12:20:17.806Z,68.10
2023-03-12T12:22:47.197Z,63.20
2023-03-12T12:25:32.696Z,63.60
2023-03-12T12:28:08.490Z,64.20
2023-03-12T12:30:35.054Z,65.00
2023-03-12T12:33:01.705Z,65.10
2023-03-12T12:35:34.449Z,64.60
2023-03-12T12:38:04.412Z,64.80
2023-03-12T12:40:31.033Z,64.70
2023-03-12T12:43:16.196Z,64.20
2023-03-12T12:45:44.229Z,62.40
2023-03-12T12:48:18.920Z,62.60
2023-03-12T12:50:47.443Z,62.70
2023-03-12T12:53:21.472Z,63.20
2023-03-12T12:56:02.580Z,61.70
2023-03-12T12:58:49.809Z,62.20
2023-03-12T13:01:17.126Z,63.90
2023-03-12T13:03:45.437Z,64.10
2023-03-12T13:06:12.144Z,65.30
2023-03-12T13:08:44.760Z,66.20
2023-03-12T13:11:19.364Z,66.80
2023-03-12T13:14:02.156Z,67.40
2023-03-12T13:16:33.269Z,64.00
2023-03-12T13:19:01.306Z,64.00
2023-03-12T13:21:36.212Z,64.20
2023-03-12T13:24:05.527Z,65.10
2023-03-12T13:26:42.192Z,64.10
2023-03-12T13:29:18.917Z,63.30
2023-03-12T13:31:45.674Z,63.50
2023-03-12T13:34:18.320Z,64.10
2023-03-12T13:36:50.453Z,63.90
2023-03-12T13:39:17.205Z,64.80
2023-03-12T13:41:50.381Z,65.70
2023-03-12T13:44:22.726Z,65.80
2023-03-12T13:46:58.433Z,64.20
2023-03-12T13:49:25.808Z,65.90
2023-03-12T13:51:57.241Z,64.90
2023-03-12T13:54:25.912Z,64.70
2023-03-12T13:56:57.442Z,65.50
2023-03-12T13:59:24.674Z,65.40
2023-03-12T14:01:54.013Z,65.80
2023-03-12T14:04:22.323Z,66.70
2023-03-12T14:07:07.693Z,66.70
2023-03-12T14:09:40.611Z,65.20
2023-03-12T14:12:16.447Z,62.80
2023-03-12T14:14:49.095Z,63.40
2023-03-12T14:17:18.548Z,64.10
2023-03-12T14:19:47.536Z,65.60
2023-03-12T14:22:14.253Z,64.40
2023-03-12T14:24:42.247Z,65.40
2023-03-12T14:27:15.170Z,66.00
2023-03-12T14:29:58.233Z,67.10
2023-03-12T14:32:29.512Z,67.70
2023-03-12T14:35:11.433Z,68.00
2023-03-12T14:37:44.281Z,70.00
2023-03-12T14:40:16.819Z,70.90
2023-03-12T14:42:43.443Z,71.40
2023-03-12T14:45:13.163Z,71.80
2023-03-12T14:47:43.075Z,72.60
2023-03-12T14:50:29.917Z,73.30
2023-03-12T14:53:10.273Z,74.00
2023-03-12T14:55:36.920Z,72.80
2023-03-12T14:58:05.020Z,72.60
2023-03-12T15:00:31.974Z,72.40
2023-03-12T15:03:00.077Z,72.60
2023-03-12T15:05:26.817Z,73.40
2023-03-12T15:07:56.015Z,72.80
2023-03-12T15:10:24.067Z,73.40
2023-03-12T15:12:51.784Z,74.30
2023-03-12T15:15:24.320Z,73.50
2023-03-12T15:17:51.000Z,73.60
2023-03-12T15:20:25.825Z,74.10
2023-03-12T15:22:52.597Z,74.60
2023-03-12T15:25:23.091Z,75.40
2023-03-12T15:27:59.986Z,76.10
2023-03-12T15:30:27.293Z,76.60
2023-03-12T15:33:07.905Z,77.90
2023-03-12T15:35:36.142Z,78.20
2023-03-12T15:38:03.232Z,78.70
2023-03-12T15:40:30.964Z,79.40
2023-03-12T15:43:01.795Z,79.50
2023-03-12T15:45:31.354Z,79.90
2023-03-12T15:47:58.091Z,80.60
2023-03-12T15:50:31.184Z,80.50
2023-03-12T15:53:00.612Z,80.10
2023-03-12T15:55:31.947Z,80.20
2023-03-12T15:57:59.459Z,81.60
2023-03-12T16:00:42.315Z,82.50
2023-03-12T16:03:16.813Z,84.60
2023-03-12T16:05:43.627Z,87.20
2023-03-12T16:08:13.953Z,89.00
2023-03-12T16:10:40.874Z,88.70
2023-03-12T16:13:10.581Z,88.10
2023-03-12T16:15:37.945Z,88.80
2023-03-12T16:18:05.368Z,89.00
2023-03-12T16:20:32.022Z,88.80
2023-03-12T16:22:58.755Z,88.40
2023-03-12T16:25:25.792Z,89.80
2023-03-12T16:27:56.821Z,90.10
2023-03-12T16:30:41.494Z,90.00
2023-03-12T16:33:09.483Z,90.50
2023-03-12T16:35:36.809Z,91.00
2023-03-12T16:38:03.859Z,91.20
2023-03-12T16:40:33.855Z,91.80
2023-03-12T16:43:03.927Z,92.00
2023-03-12T16:45:31.643Z,92.10
2023-03-12T16:48:00.176Z,92.50
2023-03-12T16:50:27.117Z,93.20
2023-03-12T16:52:53.736Z,94.00
2023-03-12T16:55:21.501Z,95.50
2023-03-12T16:57:57.851Z,96.80
2023-03-12T17:00:26.645Z,97.80
2023-03-12T17:02:57.846Z,98.30
2023-03-12T17:05:29.110Z,99.10
2023-03-12T17:07:56.397Z,99.80
2023-03-12T17:10:23.270Z,99.90
2023-03-12T17:12:50.183Z,99.90
2023-03-12T17:15:25.873Z,99.90
2023-03-12T17:17:52.906Z,99.90
2023-03-12T17:20:21.186Z,99.90
2023-03-12T17:22:48.248Z,99.90
2023-03-12T17:25:25.986Z,99.90
2023-03-12T17:27:53.112Z,99.90
2023-03-12T17:30:22.176Z,99.90
2023-03-12T17:32:49.850Z,99.90
2023-03-12T17:35:17.028Z,99.90
2023-03-12T17:37:43.763Z,99.90
2023-03-12T17:40:11.031Z,99.90
2023-03-12T17:42:38.346Z,99.90
2023-03-12T17:45:05.951Z,99.90
2023-03-12T17:47:32.755Z,99.90
2023-03-12T17:49:59.537Z,99.90
2023-03-12T17:52:26.208Z,99.90
2023-03-12T17:54:52.820Z,99.90
2023-03-12T17:57:19.443Z,99.90
2023-03-12T17:59:46.129Z,99.90
2023-03-12T18:02:14.265Z,99.90
2023-03-12T18:04:40.951Z,99.90
2023-03-12T18:07:07.797Z,99.90
2023-03-12T18:09:34.590Z,99.90
2023-03-12T18:12:01.303Z,99.90
2023-03-12T18:14:27.994Z,99.90
2023-03-12T18:16:54.615Z,99.90
2023-03-12T18:19:21.243Z,99.90
2023-03-12T18:21:47.798Z,99.90
2023-03-12T18:24:14.910Z,99.90
2023-03-12T18:26:41.775Z,99.90
2023-03-12T18:29:08.503Z,99.90
2023-03-12T18:31:35.350Z,99.90
2023-03-12T18:34:01.969Z,99.90
2023-03-12T18:36:28.579Z,99.90
2023-03-12T18:38:55.380Z,99.90
2023-03-12T18:41:22.494Z,99.90
2023-03-12T18:43:49.166Z,99.90
2023-03-12T18:46:15.852Z,99.90
2023-03-12T18:48:44.263Z,99.90
2023-03-12T18:51:11.176Z,99.90
2023-03-12T18:53:37.741Z,99.90
2023-03-12T18:56:04.498Z,99.90
2023-03-12T18:58:31.076Z,99.90
2023-03-12T19:00:58.161Z,99.90
2023-03-12T19:03:25.419Z,99.90
2023-03-12T19:06:11.181Z,99.90
2023-03-12T19:08:38.060Z,99.90
2023-03-12T19:11:05.936Z,99.90
2023-03-12T19:13:32.581Z,99.90
2023-03-12T19:16:00.217Z,99.90
2023-03-12T19:18:27.438Z,99.90
2023-03-12T19:20:54.121Z,99.90
2023-03-12T19:23:21.274Z,99.90
2023-03-12T19:25:48.332Z,99.90
2023-03-12T19:28:15.226Z,99.90
2023-03-12T19:30:41.873Z,99.90
2023-03-12T19:33:08.572Z,99.90
2023-03-12T19:35:39.082Z,99.90
2023-03-12T19:38:06.019Z,99.90
2023-03-12T19:40:33.188Z,99.90
2023-03-12T19:43:00.016Z,99.90
2023-03-12T19:45:26.871Z,99.90
2023-03-12T19:47:53.532Z,99.90
2023-03-12T19:50:20.425Z,99.90
2023-03-12T19:52:47.656Z,99.90
2023-03-12T19:55:14.686Z,99.90
2023-03-12T19:57:41.520Z,99.90
2023-03-12T20:00:09.785Z,99.90
2023-03-12T20:02:37.318Z,99.90
2023-03-12T20:05:04.363Z,99.90
2023-03-12T20:07:31.126Z,99.90
2023-03-12T20:09:57.763Z,99.90
2023-03-12T20:12:24.552Z,99.90
2023-03-12T20:14:51.119Z,99.90
2023-03-12T20:17:17.779Z,99.90
2023-03-12T20:19:44.455Z,99.90
2023-03-12T20:22:11.066Z,99.90
2023-03-12T20:24:37.628Z,99.90
2023-03-12T20:27:05.022Z,99.90
2023-03-12T20:29:42.431Z,99.90
2023-03-12T20:32:09.100Z,99.90
2023-03-12T20:34:35.700Z,99.90
2023-03-12T20:37:02.255Z,99.90
2023-03-12T20:39:28.976Z,99.90
2023-03-12T20:41:55.648Z,99.90
2023-03-12T20:44:22.406Z,99.90
2023-03-12T20:46:48.986Z,99.90
2023-03-12T20:49:15.629Z,99.90
2023-03-12T20:51:42.966Z,99.90
2023-03-12T20:54:09.687Z,99.90
2023-03-12T20:56:36.285Z,99.90
2023-03-12T20:59:02.877Z,99.90
2023-03-12T21:01:29.569Z,99.90
2023-03-12T21:03:57.091Z,99.90
2023-03-12T21:06:23.927Z,99.90
2023-03-12T21:08:50.503Z,99.90
2023-03-12T21:11:17.114Z,99.90
2023-03-12T21:13:43.741Z,99.90
2023-03-12T21:16:11.666Z,99.90
2023-03-12T21:18:38.282Z,99.90
2023-03-12T21:21:05.599Z,99.90
2023-03-12T21:23:32.640Z,99.90
2023-03-12T21:26:00.582Z,99.90
2023-03-12T21:28:27.582Z,99.90
2023-03-12T21:30:54.326Z,99.90
2023-03-12T21:33:21.401Z,99.90
2023-03-12T21:35:48.007Z,99.90
2023-03-12T21:38:14.657Z,99.90
2023-03-12T21:40:41.276Z,99.90
2023-03-12T21:43:07.896Z,99.90
2023-03-12T21:45:34.609Z,99.90
2023-03-12T21:48:01.176Z,99.90
2023-03-12T21:50:27.812Z,99.90
2023-03-12T21:52:54.377Z,99.90
2023-03-12T21:55:21.211Z,99.90
2023-03-12T21:57:47.981Z,99.90
2023-03-12T22:00:14.719Z,99.90
2023-03-12T22:02:41.902Z,99.90
2023-03-12T22:05:08.955Z,99.90
2023-03-12T22:07:35.665Z,99.90
2023-03-12T22:10:02.649Z,99.90
2023-03-12T22:12:29.345Z,99.90
2023-03-12T22:14:55.911Z,99.90
2023-03-12T22:17:22.519Z,99.90
2023-03-12T22:19:49.103Z,99.90
2023-03-12T22:22:15.757Z,99.90
2023-03-12T22:24:44.275Z,99.90
2023-03-12T22:27:10.951Z,99.90
2023-03-12T22:29:37.691Z,99.90
2023-03-12T22:32:04.446Z,99.90
2023-03-12T22:34:31.072Z,99.90
2023-03-12T22:36:57.658Z,99.90
2023-03-12T22:39:24.297Z,99.90
2023-03-12T22:41:50.847Z,99.90
2023-03-12T22:44:17.738Z,99.90
2023-03-12T22:46:44.410Z,99.90
2023-03-12T22:49:11.261Z,99.90
2023-03-12T22:51:37.950Z,99.90
2023-03-12T22:54:04.833Z,99.90
2023-03-12T22:56:31.533Z,99.90
2023-03-12T22:58:58.175Z,99.90
2023-03-12T23:01:25.141Z,99.90
2023-03-12T23:03:51.835Z,99.90
2023-03-12T23:06:25.749Z,99.90
2023-03-12T23:08:54.622Z,99.90
2023-03-12T23:11:21.548Z,99.90
2023-03-12T23:13:49.641Z,99.90
2023-03-12T23:16:20.773Z,99.90
2023-03-12T23:18:47.727Z,99.90
2023-03-12T23:21:15.892Z,99.90
2023-03-12T23:23:43.551Z,99.90
2023-03-12T23:26:28.770Z,99.90
2023-03-12T23:28:56.101Z,99.90
2023-03-12T23:31:22.810Z,99.90
2023-03-12T23:33:49.540Z,99.90
2023-03-12T23:36:18.470Z,99.90
2023-03-12T23:38:45.467Z,99.90
2023-03-12T23:41:15.042Z,99.90
2023-03-12T23:43:41.672Z,99.90
2023-03-12T23:46:08.902Z,99.90
2023-03-12T23:48:36.502Z,99.90
2023-03-12T23:51:10.419Z,99.90
2023-03-12T23:53:37.617Z,99.90
2023-03-12T23:56:05.372Z,99.90
2023-03-12T23:58:31.978Z,99.90
